sensor_id;sensor_type;location;lat;lon;timestamp;P1;durP1;ratioP1;P2;durP2;ratioP2
74375;SDS011;62812;55.188;61.302;2023-02-08T00:00:06;63.53;;;41.50;;
74375;SDS011;62812;55.188;61.302;2023-02-08T00:02:33;72.35;;;43.80;;
74375;SDS011;62812;55.188;61.302;2023-02-08T00:05:00;81.45;;;46.45;;
74375;SDS011;62812;55.188;61.302;2023-02-08T00:07:26;34.47;;;13.00;;
74375;SDS011;62812;55.188;61.302;2023-02-08T00:09:55;29.90;;;15.88;;
74375;SDS011;62812;55.188;61.302;2023-02-08T00:12:21;43.28;;;29.48;;
74375;SDS011;62812;55.188;61.302;2023-02-08T00:14:48;65.90;;;39.47;;
74375;SDS011;62812;55.188;61.302;2023-02-08T00:17:14;34.03;;;13.10;;
74375;SDS011;62812;55.188;61.302;2023-02-08T00:19:41;35.08;;;13.68;;
74375;SDS011;62812;55.188;61.302;2023-02-08T00:22:07;32.25;;;11.88;;
74375;SDS011;62812;55.188;61.302;2023-02-08T00:24:34;33.58;;;13.40;;
74375;SDS011;62812;55.188;61.302;2023-02-08T00:27:02;31.88;;;10.90;;
74375;SDS011;62812;55.188;61.302;2023-02-08T00:29:28;33.45;;;18.70;;
74375;SDS011;62812;55.188;61.302;2023-02-08T00:31:55;51.08;;;28.98;;
74375;SDS011;62812;55.188;61.302;2023-02-08T00:34:23;65.78;;;39.45;;
74375;SDS011;62812;55.188;61.302;2023-02-08T00:36:49;70.80;;;43.53;;
74375;SDS011;62812;55.188;61.302;2023-02-08T00:39:15;84.07;;;46.05;;
74375;SDS011;62812;55.188;61.302;2023-02-08T00:41:42;38.55;;;13.80;;
74375;SDS011;62812;55.188;61.302;2023-02-08T00:44:09;36.92;;;16.92;;
74375;SDS011;62812;55.188;61.302;2023-02-08T00:46:36;42.70;;;16.20;;
74375;SDS011;62812;55.188;61.302;2023-02-08T00:49:03;35.33;;;13.00;;
74375;SDS011;62812;55.188;61.302;2023-02-08T00:51:29;53.80;;;29.70;;
74375;SDS011;62812;55.188;61.302;2023-02-08T00:53:56;67.90;;;40.85;;
74375;SDS011;62812;55.188;61.302;2023-02-08T00:56:22;79.25;;;45.25;;
74375;SDS011;62812;55.188;61.302;2023-02-08T00:58:49;39.15;;;15.32;;
74375;SDS011;62812;55.188;61.302;2023-02-08T01:01:17;44.83;;;19.92;;
74375;SDS011;62812;55.188;61.302;2023-02-08T01:03:43;66.75;;;39.47;;
74375;SDS011;62812;55.188;61.302;2023-02-08T01:06:10;75.78;;;45.78;;
74375;SDS011;62812;55.188;61.302;2023-02-08T01:08:40;96.82;;;52.05;;
74375;SDS011;62812;55.188;61.302;2023-02-08T01:11:07;38.25;;;14.90;;
74375;SDS011;62812;55.188;61.302;2023-02-08T01:13:36;48.22;;;25.08;;
74375;SDS011;62812;55.188;61.302;2023-02-08T01:16:06;73.43;;;43.35;;
74375;SDS011;62812;55.188;61.302;2023-02-08T01:18:37;93.68;;;48.10;;
74375;SDS011;62812;55.188;61.302;2023-02-08T01:21:07;38.88;;;15.23;;
74375;SDS011;62812;55.188;61.302;2023-02-08T01:23:36;53.97;;;27.02;;
74375;SDS011;62812;55.188;61.302;2023-02-08T01:26:02;78.75;;;44.55;;
74375;SDS011;62812;55.188;61.302;2023-02-08T01:28:29;97.78;;;48.08;;
74375;SDS011;62812;55.188;61.302;2023-02-08T01:30:56;105.68;;;52.28;;
74375;SDS011;62812;55.188;61.302;2023-02-08T01:33:23;44.78;;;16.50;;
74375;SDS011;62812;55.188;61.302;2023-02-08T01:35:51;53.00;;;29.48;;
74375;SDS011;62812;55.188;61.302;2023-02-08T01:38:18;55.80;;;18.75;;
74375;SDS011;62812;55.188;61.302;2023-02-08T01:40:45;57.30;;;25.95;;
74375;SDS011;62812;55.188;61.302;2023-02-08T01:43:15;85.32;;;46.58;;
74375;SDS011;62812;55.188;61.302;2023-02-08T01:45:46;108.95;;;52.80;;
74375;SDS011;62812;55.188;61.302;2023-02-08T01:48:14;50.28;;;18.73;;
74375;SDS011;62812;55.188;61.302;2023-02-08T01:50:46;68.78;;;37.25;;
74375;SDS011;62812;55.188;61.302;2023-02-08T01:53:19;106.18;;;52.47;;
74375;SDS011;62812;55.188;61.302;2023-02-08T01:55:48;52.90;;;18.08;;
74375;SDS011;62812;55.188;61.302;2023-02-08T01:58:17;64.95;;;36.13;;
74375;SDS011;62812;55.188;61.302;2023-02-08T02:00:45;96.55;;;52.08;;
74375;SDS011;62812;55.188;61.302;2023-02-08T02:03:12;52.60;;;19.92;;
74375;SDS011;62812;55.188;61.302;2023-02-08T02:05:40;65.82;;;38.20;;
74375;SDS011;62812;55.188;61.302;2023-02-08T02:08:11;103.43;;;52.67;;
74375;SDS011;62812;55.188;61.302;2023-02-08T02:10:39;54.30;;;19.23;;
74375;SDS011;62812;55.188;61.302;2023-02-08T02:13:08;74.13;;;39.20;;
74375;SDS011;62812;55.188;61.302;2023-02-08T02:15:37;105.45;;;53.00;;
74375;SDS011;62812;55.188;61.302;2023-02-08T02:18:03;114.90;;;55.70;;
74375;SDS011;62812;55.188;61.302;2023-02-08T02:20:36;56.03;;;20.70;;
74375;SDS011;62812;55.188;61.302;2023-02-08T02:32:40;57.20;;;22.60;;
74375;SDS011;62812;55.188;61.302;2023-02-08T02:35:16;73.00;;;41.72;;
74375;SDS011;62812;55.188;61.302;2023-02-08T02:37:47;104.13;;;55.97;;
74375;SDS011;62812;55.188;61.302;2023-02-08T02:40:25;131.00;;;57.80;;
74375;SDS011;62812;55.188;61.302;2023-02-08T02:43:03;60.95;;;22.27;;
74375;SDS011;62812;55.188;61.302;2023-02-08T02:45:55;98.18;;;51.63;;
74375;SDS011;62812;55.188;61.302;2023-02-08T02:48:29;121.72;;;57.97;;
74375;SDS011;62812;55.188;61.302;2023-02-08T02:51:04;128.00;;;62.17;;
74375;SDS011;62812;55.188;61.302;2023-02-08T02:53:37;70.32;;;26.25;;
74375;SDS011;62812;55.188;61.302;2023-02-08T02:56:14;119.07;;;60.33;;
74375;SDS011;62812;55.188;61.302;2023-02-08T02:58:43;83.32;;;31.25;;
74375;SDS011;62812;55.188;61.302;2023-02-08T03:01:10;84.90;;;31.05;;
74375;SDS011;62812;55.188;61.302;2023-02-08T03:03:38;78.97;;;36.30;;
74375;SDS011;62812;55.188;61.302;2023-02-08T03:06:06;73.18;;;25.75;;
74375;SDS011;62812;55.188;61.302;2023-02-08T03:11:29;125.85;;;57.40;;
74375;SDS011;62812;55.188;61.302;2023-02-08T03:14:02;70.55;;;24.23;;
74375;SDS011;62812;55.188;61.302;2023-02-08T03:16:41;109.05;;;54.95;;
74375;SDS011;62812;55.188;61.302;2023-02-08T03:19:25;71.47;;;24.48;;
74375;SDS011;62812;55.188;61.302;2023-02-08T03:22:05;99.65;;;50.70;;
74375;SDS011;62812;55.188;61.302;2023-02-08T03:24:44;86.78;;;28.77;;
74375;SDS011;62812;55.188;61.302;2023-02-08T03:27:17;112.85;;;54.80;;
74375;SDS011;62812;55.188;61.302;2023-02-08T03:29:53;148.88;;;69.57;;
74375;SDS011;62812;55.188;61.302;2023-02-08T03:32:28;75.80;;;29.00;;
74375;SDS011;62812;55.188;61.302;2023-02-08T03:35:03;125.97;;;58.08;;
74375;SDS011;62812;55.188;61.302;2023-02-08T03:37:36;141.65;;;64.25;;
74375;SDS011;62812;55.188;61.302;2023-02-08T03:40:06;149.32;;;64.28;;
74375;SDS011;62812;55.188;61.302;2023-02-08T03:42:37;82.65;;;27.20;;
74375;SDS011;62812;55.188;61.302;2023-02-08T03:45:06;119.85;;;58.30;;
74375;SDS011;62812;55.188;61.302;2023-02-08T03:47:38;148.68;;;67.70;;
74375;SDS011;62812;55.188;61.302;2023-02-08T03:50:09;165.68;;;69.13;;
74375;SDS011;62812;55.188;61.302;2023-02-08T03:52:40;74.75;;;27.20;;
74375;SDS011;62812;55.188;61.302;2023-02-08T03:55:10;134.77;;;62.10;;
74375;SDS011;62812;55.188;61.302;2023-02-08T03:57:41;84.03;;;29.88;;
74375;SDS011;62812;55.188;61.302;2023-02-08T04:00:13;107.82;;;56.88;;
74375;SDS011;62812;55.188;61.302;2023-02-08T04:02:44;77.20;;;27.20;;
74375;SDS011;62812;55.188;61.302;2023-02-08T04:05:18;94.40;;;53.47;;
74375;SDS011;62812;55.188;61.302;2023-02-08T04:07:46;144.77;;;66.35;;
74375;SDS011;62812;55.188;61.302;2023-02-08T04:10:13;135.88;;;65.43;;
74375;SDS011;62812;55.188;61.302;2023-02-08T04:12:43;90.95;;;33.03;;
74375;SDS011;62812;55.188;61.302;2023-02-08T04:15:11;101.97;;;36.55;;
74375;SDS011;62812;55.188;61.302;2023-02-08T04:17:37;83.38;;;36.50;;
74375;SDS011;62812;55.188;61.302;2023-02-08T04:20:04;114.30;;;36.80;;
74375;SDS011;62812;55.188;61.302;2023-02-08T04:22:32;84.55;;;35.28;;
74375;SDS011;62812;55.188;61.302;2023-02-08T04:24:59;114.05;;;57.17;;
74375;SDS011;62812;55.188;61.302;2023-02-08T04:27:25;132.70;;;62.22;;
74375;SDS011;62812;55.188;61.302;2023-02-08T04:29:52;138.00;;;66.55;;
74375;SDS011;62812;55.188;61.302;2023-02-08T04:32:19;92.90;;;32.80;;
74375;SDS011;62812;55.188;61.302;2023-02-08T04:34:45;84.55;;;36.28;;
74375;SDS011;62812;55.188;61.302;2023-02-08T04:37:12;129.55;;;57.63;;
74375;SDS011;62812;55.188;61.302;2023-02-08T04:39:39;115.38;;;57.20;;
74375;SDS011;62812;55.188;61.302;2023-02-08T04:42:07;109.25;;;37.55;;
74375;SDS011;62812;55.188;61.302;2023-02-08T04:44:33;92.10;;;35.13;;
74375;SDS011;62812;55.188;61.302;2023-02-08T04:47:00;96.60;;;47.38;;
74375;SDS011;62812;55.188;61.302;2023-02-08T04:49:26;92.05;;;30.70;;
74375;SDS011;62812;55.188;61.302;2023-02-08T04:51:53;75.82;;;28.38;;
74375;SDS011;62812;55.188;61.302;2023-02-08T04:54:19;69.45;;;33.95;;
74375;SDS011;62812;55.188;61.302;2023-02-08T04:56:47;72.88;;;24.73;;
74375;SDS011;62812;55.188;61.302;2023-02-08T04:59:14;55.80;;;21.40;;
74375;SDS011;62812;55.188;61.302;2023-02-08T05:01:41;64.07;;;28.77;;
74375;SDS011;62812;55.188;61.302;2023-02-08T05:04:07;71.40;;;35.80;;
74375;SDS011;62812;55.188;61.302;2023-02-08T05:06:34;69.47;;;42.78;;
74375;SDS011;62812;55.188;61.302;2023-02-08T05:09:00;75.45;;;43.17;;
74375;SDS011;62812;55.188;61.302;2023-02-08T05:11:27;54.33;;;21.85;;
74375;SDS011;62812;55.188;61.302;2023-02-08T05:13:55;53.47;;;19.40;;
74375;SDS011;62812;55.188;61.302;2023-02-08T05:16:21;49.30;;;22.63;;
74375;SDS011;62812;55.188;61.302;2023-02-08T05:18:48;52.63;;;29.13;;
74375;SDS011;62812;55.188;61.302;2023-02-08T05:21:14;61.15;;;33.47;;
74375;SDS011;62812;55.188;61.302;2023-02-08T05:23:41;67.97;;;37.15;;
74375;SDS011;62812;55.188;61.302;2023-02-08T05:26:08;62.25;;;37.30;;
74375;SDS011;62812;55.188;61.302;2023-02-08T05:28:36;57.50;;;36.47;;
74375;SDS011;62812;55.188;61.302;2023-02-08T05:33:55;65.07;;;40.08;;
74375;SDS011;62812;55.188;61.302;2023-02-08T05:36:22;64.18;;;38.65;;
74375;SDS011;62812;55.188;61.302;2023-02-08T05:38:48;60.47;;;36.08;;
74375;SDS011;62812;55.188;61.302;2023-02-08T05:41:15;58.75;;;36.95;;
74375;SDS011;62812;55.188;61.302;2023-02-08T05:43:42;44.45;;;18.15;;
74375;SDS011;62812;55.188;61.302;2023-02-08T05:46:09;38.78;;;15.10;;
74375;SDS011;62812;55.188;61.302;2023-02-08T05:48:37;34.78;;;16.88;;
74375;SDS011;62812;55.188;61.302;2023-02-08T05:51:03;46.75;;;17.98;;
74375;SDS011;62812;55.188;61.302;2023-02-08T05:53:30;38.10;;;13.50;;
74375;SDS011;62812;55.188;61.302;2023-02-08T05:55:56;34.42;;;15.02;;
74375;SDS011;62812;55.188;61.302;2023-02-08T05:58:23;44.13;;;18.57;;
74375;SDS011;62812;55.188;61.302;2023-02-08T06:00:50;38.60;;;16.00;;
74375;SDS011;62812;55.188;61.302;2023-02-08T06:03:18;34.80;;;13.73;;
74375;SDS011;62812;55.188;61.302;2023-02-08T06:05:46;44.65;;;18.52;;
74375;SDS011;62812;55.188;61.302;2023-02-08T06:08:13;37.95;;;15.02;;
74375;SDS011;62812;55.188;61.302;2023-02-08T06:10:40;29.42;;;13.00;;
74375;SDS011;62812;55.188;61.302;2023-02-08T06:13:06;30.98;;;12.90;;
74375;SDS011;62812;55.188;61.302;2023-02-08T06:15:33;45.00;;;14.95;;
74375;SDS011;62812;55.188;61.302;2023-02-08T06:17:59;31.48;;;12.75;;
74375;SDS011;62812;55.188;61.302;2023-02-08T06:20:26;35.50;;;13.82;;
74375;SDS011;62812;55.188;61.302;2023-02-08T06:22:53;28.92;;;12.65;;
74375;SDS011;62812;55.188;61.302;2023-02-08T06:25:22;35.10;;;13.60;;
74375;SDS011;62812;55.188;61.302;2023-02-08T06:27:48;27.80;;;11.10;;
74375;SDS011;62812;55.188;61.302;2023-02-08T06:30:15;29.25;;;10.10;;
74375;SDS011;62812;55.188;61.302;2023-02-08T06:32:41;23.17;;;10.13;;
74375;SDS011;62812;55.188;61.302;2023-02-08T06:35:08;26.23;;;10.18;;
74375;SDS011;62812;55.188;61.302;2023-02-08T06:37:34;36.47;;;12.67;;
74375;SDS011;62812;55.188;61.302;2023-02-08T06:40:02;26.17;;;9.98;;
74375;SDS011;62812;55.188;61.302;2023-02-08T06:42:29;21.73;;;7.97;;
74375;SDS011;62812;55.188;61.302;2023-02-08T06:44:56;17.92;;;6.97;;
74375;SDS011;62812;55.188;61.302;2023-02-08T06:47:24;19.35;;;7.15;;
74375;SDS011;62812;55.188;61.302;2023-02-08T06:49:51;17.58;;;7.63;;
74375;SDS011;62812;55.188;61.302;2023-02-08T06:52:18;14.27;;;6.35;;
74375;SDS011;62812;55.188;61.302;2023-02-08T06:54:45;24.80;;;8.82;;
74375;SDS011;62812;55.188;61.302;2023-02-08T06:57:14;19.58;;;8.13;;
74375;SDS011;62812;55.188;61.302;2023-02-08T06:59:41;19.52;;;9.00;;
74375;SDS011;62812;55.188;61.302;2023-02-08T07:02:09;19.98;;;9.38;;
74375;SDS011;62812;55.188;61.302;2023-02-08T07:04:37;19.30;;;8.02;;
74375;SDS011;62812;55.188;61.302;2023-02-08T07:07:05;20.25;;;7.32;;
74375;SDS011;62812;55.188;61.302;2023-02-08T07:09:32;18.92;;;8.93;;
74375;SDS011;62812;55.188;61.302;2023-02-08T07:11:58;19.83;;;8.50;;
74375;SDS011;62812;55.188;61.302;2023-02-08T07:16:57;22.17;;;11.10;;
74375;SDS011;62812;55.188;61.302;2023-02-08T07:19:23;17.65;;;7.18;;
74375;SDS011;62812;55.188;61.302;2023-02-08T07:21:50;22.63;;;8.00;;
74375;SDS011;62812;55.188;61.302;2023-02-08T07:24:16;17.77;;;8.55;;
74375;SDS011;62812;55.188;61.302;2023-02-08T07:26:43;21.90;;;8.30;;
74375;SDS011;62812;55.188;61.302;2023-02-08T07:29:09;13.55;;;6.43;;
74375;SDS011;62812;55.188;61.302;2023-02-08T07:31:37;16.23;;;6.03;;
74375;SDS011;62812;55.188;61.302;2023-02-08T07:34:03;23.40;;;8.13;;
74375;SDS011;62812;55.188;61.302;2023-02-08T07:36:30;20.17;;;7.65;;
74375;SDS011;62812;55.188;61.302;2023-02-08T07:38:56;19.83;;;6.97;;
74375;SDS011;62812;55.188;61.302;2023-02-08T07:41:23;15.90;;;6.35;;
74375;SDS011;62812;55.188;61.302;2023-02-08T07:43:49;22.60;;;9.10;;
74375;SDS011;62812;55.188;61.302;2023-02-08T07:46:16;23.95;;;8.20;;
74375;SDS011;62812;55.188;61.302;2023-02-08T07:48:45;18.17;;;7.13;;
74375;SDS011;62812;55.188;61.302;2023-02-08T07:51:13;17.42;;;6.45;;
74375;SDS011;62812;55.188;61.302;2023-02-08T07:53:40;19.23;;;6.30;;
74375;SDS011;62812;55.188;61.302;2023-02-08T07:56:06;16.83;;;5.90;;
74375;SDS011;62812;55.188;61.302;2023-02-08T07:58:34;12.10;;;4.10;;
74375;SDS011;62812;55.188;61.302;2023-02-08T08:01:01;13.27;;;4.03;;
74375;SDS011;62812;55.188;61.302;2023-02-08T08:03:28;13.07;;;4.13;;
74375;SDS011;62812;55.188;61.302;2023-02-08T08:05:55;12.57;;;4.75;;
74375;SDS011;62812;55.188;61.302;2023-02-08T08:08:22;14.05;;;4.63;;
74375;SDS011;62812;55.188;61.302;2023-02-08T08:10:49;12.07;;;4.60;;
74375;SDS011;62812;55.188;61.302;2023-02-08T08:13:15;11.98;;;3.88;;
74375;SDS011;62812;55.188;61.302;2023-02-08T08:15:42;13.50;;;4.50;;
74375;SDS011;62812;55.188;61.302;2023-02-08T08:18:08;11.60;;;4.43;;
74375;SDS011;62812;55.188;61.302;2023-02-08T08:20:35;11.05;;;4.28;;
74375;SDS011;62812;55.188;61.302;2023-02-08T08:23:02;11.93;;;4.13;;
74375;SDS011;62812;55.188;61.302;2023-02-08T08:25:29;14.20;;;4.43;;
74375;SDS011;62812;55.188;61.302;2023-02-08T08:27:56;12.50;;;4.07;;
74375;SDS011;62812;55.188;61.302;2023-02-08T08:30:22;14.77;;;4.97;;
74375;SDS011;62812;55.188;61.302;2023-02-08T08:32:49;12.40;;;4.50;;
74375;SDS011;62812;55.188;61.302;2023-02-08T08:35:15;12.18;;;5.15;;
74375;SDS011;62812;55.188;61.302;2023-02-08T08:37:42;12.18;;;4.70;;
74375;SDS011;62812;55.188;61.302;2023-02-08T08:40:10;12.20;;;4.10;;
74375;SDS011;62812;55.188;61.302;2023-02-08T08:42:37;10.57;;;4.20;;
74375;SDS011;62812;55.188;61.302;2023-02-08T08:45:04;13.07;;;4.45;;
74375;SDS011;62812;55.188;61.302;2023-02-08T08:47:31;15.80;;;5.65;;
74375;SDS011;62812;55.188;61.302;2023-02-08T08:49:58;12.98;;;4.80;;
74375;SDS011;62812;55.188;61.302;2023-02-08T08:52:24;10.75;;;3.45;;
74375;SDS011;62812;55.188;61.302;2023-02-08T08:54:51;11.75;;;4.18;;
74375;SDS011;62812;55.188;61.302;2023-02-08T08:57:19;12.90;;;4.88;;
74375;SDS011;62812;55.188;61.302;2023-02-08T08:59:45;15.60;;;5.07;;
74375;SDS011;62812;55.188;61.302;2023-02-08T09:02:12;14.25;;;4.43;;
74375;SDS011;62812;55.188;61.302;2023-02-08T09:04:40;14.13;;;4.57;;
74375;SDS011;62812;55.188;61.302;2023-02-08T09:07:06;10.70;;;3.70;;
74375;SDS011;62812;55.188;61.302;2023-02-08T09:09:34;14.90;;;5.00;;
74375;SDS011;62812;55.188;61.302;2023-02-08T09:12:01;13.50;;;4.57;;
74375;SDS011;62812;55.188;61.302;2023-02-08T09:14:30;14.48;;;4.97;;
74375;SDS011;62812;55.188;61.302;2023-02-08T09:16:56;15.98;;;5.45;;
74375;SDS011;62812;55.188;61.302;2023-02-08T09:19:24;15.75;;;4.72;;
74375;SDS011;62812;55.188;61.302;2023-02-08T09:21:52;13.48;;;5.78;;
74375;SDS011;62812;55.188;61.302;2023-02-08T09:24:18;13.05;;;4.90;;
74375;SDS011;62812;55.188;61.302;2023-02-08T09:26:47;14.98;;;4.85;;
74375;SDS011;62812;55.188;61.302;2023-02-08T09:29:13;18.45;;;5.50;;
74375;SDS011;62812;55.188;61.302;2023-02-08T09:31:41;12.07;;;4.60;;
74375;SDS011;62812;55.188;61.302;2023-02-08T09:34:09;13.43;;;4.68;;
74375;SDS011;62812;55.188;61.302;2023-02-08T09:36:36;13.50;;;4.25;;
74375;SDS011;62812;55.188;61.302;2023-02-08T09:39:04;13.57;;;4.82;;
74375;SDS011;62812;55.188;61.302;2023-02-08T09:41:36;11.63;;;3.92;;
74375;SDS011;62812;55.188;61.302;2023-02-08T09:44:22;10.68;;;4.03;;
74375;SDS011;62812;55.188;61.302;2023-02-08T09:46:57;12.35;;;4.93;;
74375;SDS011;62812;55.188;61.302;2023-02-08T09:49:28;12.00;;;4.18;;
74375;SDS011;62812;55.188;61.302;2023-02-08T09:51:59;13.00;;;4.93;;
74375;SDS011;62812;55.188;61.302;2023-02-08T09:54:29;19.00;;;4.88;;
74375;SDS011;62812;55.188;61.302;2023-02-08T09:57:08;16.60;;;4.70;;
74375;SDS011;62812;55.188;61.302;2023-02-08T09:59:51;22.77;;;4.38;;
74375;SDS011;62812;55.188;61.302;2023-02-08T10:02:48;4.88;;;2.05;;
74375;SDS011;62812;55.188;61.302;2023-02-08T10:05:19;10.57;;;4.82;;
74375;SDS011;62812;55.188;61.302;2023-02-08T10:07:54;10.68;;;3.85;;
74375;SDS011;62812;55.188;61.302;2023-02-08T10:10:27;12.60;;;3.90;;
74375;SDS011;62812;55.188;61.302;2023-02-08T10:13:05;16.90;;;5.22;;
74375;SDS011;62812;55.188;61.302;2023-02-08T10:15:46;13.40;;;4.63;;
74375;SDS011;62812;55.188;61.302;2023-02-08T10:18:21;16.42;;;4.72;;
74375;SDS011;62812;55.188;61.302;2023-02-08T10:21:00;11.82;;;4.20;;
74375;SDS011;62812;55.188;61.302;2023-02-08T10:23:42;13.65;;;4.75;;
74375;SDS011;62812;55.188;61.302;2023-02-08T10:26:22;12.82;;;3.47;;
74375;SDS011;62812;55.188;61.302;2023-02-08T10:28:58;9.13;;;3.88;;
74375;SDS011;62812;55.188;61.302;2023-02-08T10:31:37;10.98;;;4.13;;
74375;SDS011;62812;55.188;61.302;2023-02-08T10:34:23;12.10;;;5.07;;
74375;SDS011;62812;55.188;61.302;2023-02-08T10:36:56;10.50;;;3.65;;
74375;SDS011;62812;55.188;61.302;2023-02-08T10:39:23;8.55;;;3.25;;
74375;SDS011;62812;55.188;61.302;2023-02-08T10:41:53;9.60;;;4.13;;
74375;SDS011;62812;55.188;61.302;2023-02-08T10:44:22;10.07;;;3.20;;
74375;SDS011;62812;55.188;61.302;2023-02-08T10:46:58;11.35;;;4.30;;
74375;SDS011;62812;55.188;61.302;2023-02-08T10:49:37;10.00;;;4.28;;
74375;SDS011;62812;55.188;61.302;2023-02-08T10:52:09;10.27;;;3.42;;
74375;SDS011;62812;55.188;61.302;2023-02-08T10:54:35;10.45;;;4.20;;
74375;SDS011;62812;55.188;61.302;2023-02-08T10:57:02;14.23;;;4.47;;
74375;SDS011;62812;55.188;61.302;2023-02-08T10:59:38;13.35;;;4.28;;
74375;SDS011;62812;55.188;61.302;2023-02-08T11:02:20;13.48;;;4.22;;
74375;SDS011;62812;55.188;61.302;2023-02-08T11:04:59;14.75;;;3.97;;
74375;SDS011;62812;55.188;61.302;2023-02-08T11:07:27;14.38;;;4.18;;
74375;SDS011;62812;55.188;61.302;2023-02-08T11:09:56;12.10;;;3.88;;
74375;SDS011;62812;55.188;61.302;2023-02-08T11:12:41;14.00;;;4.53;;
74375;SDS011;62812;55.188;61.302;2023-02-08T11:15:20;11.73;;;4.25;;
74375;SDS011;62812;55.188;61.302;2023-02-08T11:17:52;12.38;;;4.20;;
74375;SDS011;62812;55.188;61.302;2023-02-08T11:20:24;12.27;;;4.07;;
74375;SDS011;62812;55.188;61.302;2023-02-08T11:22:56;15.40;;;4.45;;
74375;SDS011;62812;55.188;61.302;2023-02-08T11:25:31;12.00;;;4.45;;
74375;SDS011;62812;55.188;61.302;2023-02-08T11:28:00;14.00;;;3.92;;
74375;SDS011;62812;55.188;61.302;2023-02-08T11:30:27;14.73;;;4.13;;
74375;SDS011;62812;55.188;61.302;2023-02-08T11:33:13;10.15;;;4.15;;
74375;SDS011;62812;55.188;61.302;2023-02-08T11:35:44;14.85;;;4.47;;
74375;SDS011;62812;55.188;61.302;2023-02-08T11:38:21;10.43;;;3.95;;
74375;SDS011;62812;55.188;61.302;2023-02-08T11:40:52;12.65;;;4.20;;
74375;SDS011;62812;55.188;61.302;2023-02-08T11:43:21;12.57;;;4.72;;
74375;SDS011;62812;55.188;61.302;2023-02-08T11:45:50;14.15;;;4.50;;
74375;SDS011;62812;55.188;61.302;2023-02-08T11:48:23;10.02;;;4.50;;
74375;SDS011;62812;55.188;61.302;2023-02-08T11:50:53;12.27;;;4.07;;
74375;SDS011;62812;55.188;61.302;2023-02-08T11:53:23;12.77;;;4.43;;
74375;SDS011;62812;55.188;61.302;2023-02-08T11:58:45;13.65;;;4.93;;
74375;SDS011;62812;55.188;61.302;2023-02-08T12:01:47;14.57;;;5.25;;
74375;SDS011;62812;55.188;61.302;2023-02-08T12:04:14;13.80;;;5.43;;
74375;SDS011;62812;55.188;61.302;2023-02-08T12:09:47;13.85;;;4.57;;
74375;SDS011;62812;55.188;61.302;2023-02-08T12:12:46;13.55;;;5.25;;
74375;SDS011;62812;55.188;61.302;2023-02-08T12:15:23;14.00;;;5.40;;
74375;SDS011;62812;55.188;61.302;2023-02-08T12:18:03;17.98;;;5.30;;
74375;SDS011;62812;55.188;61.302;2023-02-08T12:20:38;14.77;;;4.90;;
74375;SDS011;62812;55.188;61.302;2023-02-08T12:23:25;12.60;;;4.68;;
74375;SDS011;62812;55.188;61.302;2023-02-08T12:26:09;16.08;;;4.68;;
74375;SDS011;62812;55.188;61.302;2023-02-08T12:28:45;17.42;;;5.68;;
74375;SDS011;62812;55.188;61.302;2023-02-08T12:31:25;15.60;;;5.97;;
74375;SDS011;62812;55.188;61.302;2023-02-08T12:34:06;19.38;;;5.75;;
74375;SDS011;62812;55.188;61.302;2023-02-08T12:36:43;25.13;;;8.95;;
74375;SDS011;62812;55.188;61.302;2023-02-08T12:39:43;18.90;;;6.65;;
74375;SDS011;62812;55.188;61.302;2023-02-08T12:42:36;16.35;;;6.57;;
74375;SDS011;62812;55.188;61.302;2023-02-08T12:45:30;17.30;;;6.55;;
74375;SDS011;62812;55.188;61.302;2023-02-08T12:51:10;13.35;;;5.40;;
74375;SDS011;62812;55.188;61.302;2023-02-08T12:53:45;16.65;;;6.63;;
74375;SDS011;62812;55.188;61.302;2023-02-08T12:56:19;22.77;;;6.72;;
74375;SDS011;62812;55.188;61.302;2023-02-08T12:58:48;20.17;;;6.40;;
74375;SDS011;62812;55.188;61.302;2023-02-08T13:01:18;19.05;;;7.32;;
74375;SDS011;62812;55.188;61.302;2023-02-08T13:03:47;20.27;;;6.72;;
74375;SDS011;62812;55.188;61.302;2023-02-08T13:06:20;22.08;;;7.30;;
74375;SDS011;62812;55.188;61.302;2023-02-08T13:08:50;17.77;;;7.45;;
74375;SDS011;62812;55.188;61.302;2023-02-08T13:11:24;17.63;;;7.28;;
74375;SDS011;62812;55.188;61.302;2023-02-08T13:13:56;15.45;;;5.97;;
74375;SDS011;62812;55.188;61.302;2023-02-08T13:16:33;22.38;;;7.30;;
74375;SDS011;62812;55.188;61.302;2023-02-08T13:19:19;22.05;;;7.25;;
74375;SDS011;62812;55.188;61.302;2023-02-08T13:21:50;27.13;;;8.45;;
74375;SDS011;62812;55.188;61.302;2023-02-08T13:24:21;27.15;;;9.90;;
74375;SDS011;62812;55.188;61.302;2023-02-08T13:26:57;24.30;;;7.55;;
74375;SDS011;62812;55.188;61.302;2023-02-08T13:29:24;16.08;;;7.35;;
74375;SDS011;62812;55.188;61.302;2023-02-08T13:31:52;16.55;;;5.70;;
74375;SDS011;62812;55.188;61.302;2023-02-08T13:34:23;16.67;;;6.38;;
74375;SDS011;62812;55.188;61.302;2023-02-08T13:36:54;18.00;;;5.55;;
74375;SDS011;62812;55.188;61.302;2023-02-08T13:39:30;18.70;;;7.22;;
74375;SDS011;62812;55.188;61.302;2023-02-08T13:42:02;22.48;;;6.97;;
74375;SDS011;62812;55.188;61.302;2023-02-08T13:44:31;18.60;;;6.82;;
74375;SDS011;62812;55.188;61.302;2023-02-08T13:47:00;14.45;;;5.63;;
74375;SDS011;62812;55.188;61.302;2023-02-08T13:49:44;16.15;;;6.07;;
74375;SDS011;62812;55.188;61.302;2023-02-08T14:01:31;19.95;;;5.75;;
74375;SDS011;62812;55.188;61.302;2023-02-08T14:04:15;20.88;;;4.82;;
74375;SDS011;62812;55.188;61.302;2023-02-08T14:06:55;13.82;;;4.57;;
74375;SDS011;62812;55.188;61.302;2023-02-08T14:09:26;13.32;;;4.35;;
74375;SDS011;62812;55.188;61.302;2023-02-08T14:11:58;12.43;;;4.30;;
74375;SDS011;62812;55.188;61.302;2023-02-08T14:14:27;13.57;;;5.28;;
74375;SDS011;62812;55.188;61.302;2023-02-08T14:17:13;12.07;;;4.10;;
74375;SDS011;62812;55.188;61.302;2023-02-08T14:19:45;12.65;;;4.45;;
74375;SDS011;62812;55.188;61.302;2023-02-08T14:22:22;14.50;;;4.40;;
74375;SDS011;62812;55.188;61.302;2023-02-08T14:24:58;17.95;;;4.88;;
74375;SDS011;62812;55.188;61.302;2023-02-08T14:27:27;15.90;;;4.43;;
74375;SDS011;62812;55.188;61.302;2023-02-08T14:29:57;14.70;;;5.75;;
74375;SDS011;62812;55.188;61.302;2023-02-08T14:32:31;13.93;;;4.95;;
74375;SDS011;62812;55.188;61.302;2023-02-08T14:35:02;14.07;;;5.60;;
74375;SDS011;62812;55.188;61.302;2023-02-08T14:37:31;13.18;;;5.07;;
74375;SDS011;62812;55.188;61.302;2023-02-08T14:43:26;13.32;;;5.70;;
74375;SDS011;62812;55.188;61.302;2023-02-08T14:45:56;19.15;;;6.15;;
74375;SDS011;62812;55.188;61.302;2023-02-08T14:48:24;11.35;;;5.05;;
74375;SDS011;62812;55.188;61.302;2023-02-08T14:50:58;14.70;;;5.45;;
74375;SDS011;62812;55.188;61.302;2023-02-08T14:53:33;16.27;;;7.15;;
74375;SDS011;62812;55.188;61.302;2023-02-08T14:56:06;14.95;;;6.07;;
74375;SDS011;62812;55.188;61.302;2023-02-08T14:58:41;11.98;;;4.88;;
74375;SDS011;62812;55.188;61.302;2023-02-08T15:01:12;15.38;;;5.57;;
74375;SDS011;62812;55.188;61.302;2023-02-08T15:03:43;15.50;;;4.50;;
74375;SDS011;62812;55.188;61.302;2023-02-08T15:06:33;9.73;;;4.60;;
74375;SDS011;62812;55.188;61.302;2023-02-08T15:09:23;11.68;;;4.70;;
74375;SDS011;62812;55.188;61.302;2023-02-08T15:11:54;12.65;;;4.68;;
74375;SDS011;62812;55.188;61.302;2023-02-08T15:14:24;24.92;;;5.57;;